createdAt,value
2023-01-01T00:02:00.652Z,31.23
2023-01-01T00:07:02.904Z,30.85
2023-01-01T00:12:05.477Z,41.30
2023-01-01T00:17:07.679Z,42.65
2023-01-01T00:22:44.165Z,34.67
2023-01-01T00:27:31.946Z,36.38
2023-01-01T00:32:34.121Z,34.83
2023-01-01T00:37:39.428Z,27.60
2023-01-01T00:42:46.568Z,30.42
2023-01-01T00:47:49.044Z,30.13
2023-01-01T00:52:51.536Z,21.08
2023-01-01T00:57:53.810Z,20.92
2023-01-01T01:02:56.280Z,19.33
2023-01-01T01:07:59.070Z,21.40
2023-01-01T01:13:01.343Z,20.65
2023-01-01T01:18:04.700Z,20.55
2023-01-01T01:23:06.881Z,20.23
2023-01-01T01:28:13.195Z,17.33
2023-01-01T01:33:15.314Z,19.80
2023-01-01T01:38:17.444Z,20.95
2023-01-01T01:43:33.131Z,21.23
2023-01-01T01:48:40.432Z,24.42
2023-01-01T01:53:48.963Z,25.60
2023-01-01T01:58:51.311Z,27.23
2023-01-01T02:04:00.583Z,28.25
2023-01-01T02:09:05.207Z,31.38
2023-01-01T02:14:07.781Z,32.35
2023-01-01T02:19:48.158Z,32.45
2023-01-01T02:25:15.443Z,31.30
2023-01-01T02:30:19.814Z,32.00
2023-01-01T02:35:36.431Z,34.05
2023-01-01T02:40:49.386Z,34.85
2023-01-01T02:45:51.935Z,33.97
2023-01-01T02:50:56.867Z,34.90
2023-01-01T02:56:29.048Z,34.78
2023-01-01T03:01:47.669Z,32.83
2023-01-01T03:07:01.986Z,31.13
2023-01-01T03:12:17.269Z,34.08
2023-01-01T03:17:22.665Z,30.30
2023-01-01T03:28:04.040Z,32.08
2023-01-01T03:33:18.028Z,32.15
2023-01-01T03:38:32.537Z,30.65
2023-01-01T03:43:43.054Z,28.85
2023-01-01T03:49:02.707Z,29.38
2023-01-01T03:54:30.555Z,30.08
2023-01-01T03:59:39.661Z,29.05
2023-01-01T04:04:42.313Z,27.15
2023-01-01T04:09:50.398Z,27.65
2023-01-01T04:14:52.679Z,27.85
2023-01-01T04:19:55.467Z,27.23
2023-01-01T04:24:57.828Z,27.75
2023-01-01T04:30:00.160Z,26.08
2023-01-01T04:35:02.718Z,26.02
2023-01-01T04:40:06.115Z,26.30
2023-01-01T04:45:08.915Z,26.90
2023-01-01T04:50:11.232Z,25.98
2023-01-01T04:55:13.448Z,26.42
2023-01-01T05:00:26.627Z,25.63
2023-01-01T05:05:28.747Z,23.63
2023-01-01T05:10:30.906Z,25.90
2023-01-01T05:15:33.304Z,25.40
2023-01-01T05:20:35.752Z,25.40
2023-01-01T05:25:37.877Z,22.92
2023-01-01T05:30:41.139Z,22.73
2023-01-01T05:35:43.378Z,23.55
2023-01-01T05:40:45.532Z,23.83
2023-01-01T05:45:51.878Z,20.58
2023-01-01T05:50:54.043Z,19.88
2023-01-01T05:55:56.225Z,21.92
2023-01-01T06:00:58.422Z,19.80
2023-01-01T06:06:07.788Z,20.17
2023-01-01T06:11:13.185Z,19.60
2023-01-01T06:16:16.382Z,19.02
2023-01-01T06:21:21.344Z,18.38
2023-01-01T06:26:34.004Z,18.52
2023-01-01T06:31:40.635Z,18.65
2023-01-01T06:36:43.144Z,17.77
2023-01-01T06:41:45.344Z,17.13
2023-01-01T06:46:47.525Z,18.63
2023-01-01T06:51:49.715Z,18.33
2023-01-01T06:56:51.894Z,19.35
2023-01-01T07:02:04.523Z,16.02
2023-01-01T07:07:07.024Z,16.85
2023-01-01T07:12:09.256Z,19.20
2023-01-01T07:17:15.788Z,19.05
2023-01-01T07:22:18.029Z,18.13
2023-01-01T07:27:20.173Z,20.00
2023-01-01T07:32:22.365Z,19.02
2023-01-01T07:37:33.956Z,20.63
2023-01-01T07:42:36.149Z,18.80
2023-01-01T07:47:38.285Z,20.27
2023-01-01T07:52:43.096Z,19.45
2023-01-01T07:57:45.851Z,20.02
2023-01-01T08:02:48.552Z,22.05
2023-01-01T08:07:53.919Z,24.00
2023-01-01T08:13:03.968Z,25.27
2023-01-01T08:18:06.813Z,25.60
2023-01-01T08:23:08.948Z,27.70
2023-01-01T08:28:12.180Z,28.23
2023-01-01T08:33:14.378Z,28.15
2023-01-01T08:38:16.516Z,27.90
2023-01-01T08:43:19.231Z,31.02
2023-01-01T08:48:24.399Z,31.95
2023-01-01T08:53:32.640Z,35.60
2023-01-01T08:58:37.071Z,36.47
2023-01-01T09:03:39.306Z,37.40
2023-01-01T09:08:41.544Z,38.42
2023-01-01T09:13:43.711Z,37.28
2023-01-01T09:18:45.907Z,36.90
2023-01-01T09:23:48.284Z,34.13
2023-01-01T09:28:51.048Z,37.15
2023-01-01T09:33:53.213Z,39.90
2023-01-01T09:38:57.009Z,46.92
2023-01-01T09:44:40.784Z,47.20
2023-01-01T09:49:48.080Z,51.42
2023-01-01T09:54:59.441Z,51.35
2023-01-01T10:00:01.783Z,58.30
2023-01-01T10:05:19.267Z,65.78
2023-01-01T10:10:41.574Z,71.22
2023-01-01T10:16:37.813Z,76.68
2023-01-01T10:21:47.177Z,81.00
2023-01-01T10:26:53.748Z,63.58
2023-01-01T10:31:58.192Z,81.85
2023-01-01T10:37:01.478Z,89.45
2023-01-01T10:42:04.300Z,87.07
2023-01-01T10:47:28.946Z,80.78
2023-01-01T10:52:40.942Z,75.47
2023-01-01T10:57:45.334Z,75.38
2023-01-01T11:02:47.701Z,75.82
2023-01-01T11:07:50.467Z,78.07
2023-01-01T11:13:10.101Z,86.75
2023-01-01T11:18:21.635Z,83.00
2023-01-01T11:23:38.015Z,96.40
2023-01-01T11:28:41.286Z,84.85
2023-01-01T11:33:53.760Z,103.20
2023-01-01T11:39:17.985Z,96.82
2023-01-01T11:44:41.286Z,88.25
2023-01-01T11:49:45.877Z,98.93
2023-01-01T11:54:49.017Z,96.95
2023-01-01T11:59:59.920Z,96.72
2023-01-01T12:05:21.834Z,94.03
2023-01-01T12:10:28.337Z,96.00
2023-01-01T12:15:42.781Z,98.20
2023-01-01T12:20:51.945Z,91.88
2023-01-01T12:26:16.967Z,92.70
2023-01-01T12:31:35.912Z,90.78
2023-01-01T12:36:46.372Z,88.57
2023-01-01T12:42:21.741Z,84.00
2023-01-01T12:47:36.423Z,85.03
2023-01-01T12:53:10.788Z,80.28
2023-01-01T12:58:24.400Z,78.57
2023-01-01T13:03:54.365Z,77.90
2023-01-01T13:09:08.649Z,69.85
2023-01-01T13:14:10.911Z,69.07
2023-01-01T13:19:27.374Z,63.67
2023-01-01T13:24:29.626Z,62.00
2023-01-01T13:29:33.912Z,52.97
2023-01-01T13:34:40.588Z,52.75
2023-01-01T13:39:57.426Z,45.28
2023-01-01T13:44:59.588Z,43.58
2023-01-01T13:50:10.733Z,40.95
2023-01-01T13:55:31.372Z,45.00
2023-01-01T14:06:07.310Z,37.35
2023-01-01T14:11:26.785Z,44.90
2023-01-01T14:16:29.683Z,43.33
2023-01-01T14:21:34.796Z,43.38
2023-01-01T14:26:42.110Z,42.65
2023-01-01T14:31:46.044Z,46.08
2023-01-01T14:36:52.744Z,48.72
2023-01-01T14:41:59.792Z,43.90
2023-01-01T14:47:02.441Z,50.05
2023-01-01T14:52:10.381Z,52.83
2023-01-01T14:57:19.877Z,51.83
2023-01-01T15:02:25.458Z,50.60
2023-01-01T15:07:32.194Z,55.75
2023-01-01T15:12:36.413Z,42.35
2023-01-01T15:17:48.196Z,71.80
2023-01-01T15:22:52.388Z,55.28
2023-01-01T15:27:55.989Z,60.17
2023-01-01T15:33:07.486Z,50.75
2023-01-01T15:38:16.413Z,41.92
2023-01-01T15:43:25.899Z,44.30
2023-01-01T15:48:46.595Z,47.50
2023-01-01T15:59:09.575Z,46.45
2023-01-01T16:04:28.775Z,47.65
2023-01-01T16:09:33.267Z,51.88
2023-01-01T16:14:36.190Z,57.08
2023-01-01T16:19:38.394Z,55.78
2023-01-01T16:24:40.935Z,64.68
2023-01-01T16:29:43.885Z,79.40
2023-01-01T16:34:46.963Z,57.55
2023-01-01T16:39:49.352Z,61.67
2023-01-01T16:44:55.007Z,67.07
2023-01-01T16:49:57.179Z,77.22
2023-01-01T16:54:59.287Z,72.25
2023-01-01T17:00:02.505Z,94.88
2023-01-01T17:05:04.927Z,81.90
2023-01-01T17:10:07.403Z,81.32
2023-01-01T17:15:09.954Z,91.07
2023-01-01T17:20:12.341Z,78.78
2023-01-01T17:25:14.571Z,89.65
2023-01-01T17:30:16.975Z,95.35
2023-01-01T17:35:19.139Z,101.63
2023-01-01T17:40:21.316Z,90.80
2023-01-01T17:45:23.979Z,94.40
2023-01-01T17:50:26.111Z,94.28
2023-01-01T17:55:29.983Z,97.03
2023-01-01T18:00:32.099Z,85.03
2023-01-01T18:05:34.229Z,97.75
2023-01-01T18:10:36.364Z,68.95
2023-01-01T18:15:42.058Z,75.88
2023-01-01T18:20:44.305Z,77.90
2023-01-01T18:25:46.427Z,76.05
2023-01-01T18:30:48.570Z,73.10
2023-01-01T18:35:50.873Z,68.07
2023-01-01T18:41:31.171Z,70.00
2023-01-01T18:46:34.958Z,72.10
2023-01-01T18:51:37.143Z,86.43
2023-01-01T18:56:39.417Z,76.00
2023-01-01T19:01:44.949Z,72.85
2023-01-01T19:06:49.059Z,77.60
2023-01-01T19:11:53.510Z,89.20
2023-01-01T19:16:59.368Z,81.43
2023-01-01T19:22:29.079Z,79.90
2023-01-01T19:27:34.520Z,80.03
2023-01-01T19:32:36.727Z,86.65
2023-01-01T19:37:38.848Z,83.57
2023-01-01T19:42:40.999Z,88.20
2023-01-01T19:47:43.801Z,89.88
2023-01-01T19:52:45.937Z,103.43
2023-01-01T19:57:49.168Z,90.20
2023-01-01T20:02:51.540Z,87.07
2023-01-01T20:07:53.868Z,83.85
2023-01-01T20:12:56.081Z,102.85
2023-01-01T20:17:58.340Z,93.90
2023-01-01T20:23:00.580Z,96.50
2023-01-01T20:28:22.568Z,96.45
2023-01-01T20:33:27.527Z,90.85
2023-01-01T20:38:29.703Z,90.72
2023-01-01T20:43:31.840Z,89.82
2023-01-01T20:48:34.006Z,94.43
2023-01-01T20:53:36.184Z,91.15
2023-01-01T20:58:42.837Z,75.88
2023-01-01T21:03:50.048Z,82.40
2023-01-01T21:08:54.269Z,75.15
2023-01-01T21:13:56.489Z,69.13
2023-01-01T21:19:00.273Z,70.07
2023-01-01T21:24:12.494Z,71.03
2023-01-01T21:29:24.543Z,64.00
2023-01-01T21:34:38.310Z,66.32
2023-01-01T21:39:40.544Z,73.60
2023-01-01T21:44:42.717Z,74.47
2023-01-01T21:49:44.857Z,79.85
2023-01-01T21:54:49.708Z,71.75
2023-01-01T21:59:52.637Z,85.75
2023-01-01T22:04:55.016Z,75.15
2023-01-01T22:10:00.635Z,66.85
2023-01-01T22:15:33.516Z,67.40
2023-01-01T22:20:38.628Z,63.83
2023-01-01T22:25:40.908Z,67.75
2023-01-01T22:30:47.070Z,68.72
2023-01-01T22:35:49.370Z,67.75
2023-01-01T22:40:52.488Z,65.43
2023-01-01T22:45:55.019Z,64.60
2023-01-01T22:51:01.333Z,56.45
2023-01-01T22:56:03.552Z,59.35
2023-01-01T23:01:06.126Z,56.33
2023-01-01T23:06:08.589Z,60.22
2023-01-01T23:11:11.109Z,58.80
2023-01-01T23:16:13.453Z,55.20
2023-01-01T23:21:27.074Z,53.67
2023-01-01T23:26:29.661Z,48.78
2023-01-01T23:31:33.119Z,49.35
2023-01-01T23:36:36.151Z,51.88
2023-01-01T23:41:38.521Z,50.83
2023-01-01T23:46:41.088Z,53.22
2023-01-01T23:51:46.122Z,51.65
2023-01-01T23:56:48.274Z,49.47
